KBOIKLLJ

Guest
Details From KBOI - Boise Air Terminal (Gowen Field)
To KLLJ - CHALLIS
Flight Number -
Tags generated
Created
Modified
Stats Distance 104 nm / 193 km
Max Altitude 8,000 ft / 2,438 m
Waypoints 3
Social Downloads 0
Likes 0
Share

Download

Looking for another format? Having issues loading an existing format? Contact us
Advertisement - Login to hide

Notes

Basic altitude profile: - Ascent Rate: 1800ft/min - Ascent Speed: 250kts - Cruise Altitude: 13000ft - Cruise Speed: 325kts - Descent Rate: 1800ft/min - Descent Speed: 180kts Options: - Use NATs: yes - Use PACOTS: yes - Use low airways: yes - Use high airways: yes

Route

KBOI PLUTO KLLJ

ID Type Via Altitude (ft/m) Position (lat/lon) Dist (leg/tot) Name
O KBOI APT - 0 / 0 43.55624 / -116.21495 - / 0 nm Boise Air Terminal (Gowen Field)
PLUTO FIX - 8,000 / 2,438 43.81092 / -115.83319 22 / 22 nm
O KLLJ APT - 0 / 0 44.52292 / -114.21750 81 / 104 nm CHALLIS

Altitude Profile

Advertisement - Login to hide

KBOI

Details ICAO KBOI (BOI)
Name Boise Air Terminal Gowen Fld
Region United States
Timezone America/Boise (UTC-7.0)
Stats Elevation 2,872 ft / 875 m (AMSL)
Location 43.564400° -116.223000°
Runways 2
Magnetic Variation 13.018° E

METAR

KBOI 302253Z 29004KT 10SM FEW055 BKN070 OVC095 01/M05 A3023 RMK AO2 SLP258 T00111050

Decode

TAF

KBOI 301728Z 3018/0118 VRB05KT P6SM SCT050 BKN100 FM302000 34006KT P6SM VCSH SCT030 BKN050 FM010000 VRB04KT P6SM BKN050 FM011200 VRB03KT P6SM SKC

Decode

Departure Runways

ID Width Length Bearing (true/mag) Surface Threshold Overrun Markings Lighting
10L 150 ft / 46 m 9,982 ft / 3,043 m 115.22° / 102.20° ASPHALT 0 ft / 0 m 197 ft / 60 m APP EDGE THRESHOLD REIL-OMNI
10R 150 ft / 46 m 9,746 ft / 2,971 m 115.20° / 102.19° ASPHALT 0 ft / 0 m 200 ft / 61 m PREC-APP CENTERLINE EDGE THRESHOLD ALSF-II TDZ
28L 150 ft / 46 m 9,746 ft / 2,971 m 295.23° / 282.21° ASPHALT 0 ft / 0 m 200 ft / 61 m PREC-APP CENTERLINE EDGE THRESHOLD MALSR TDZ
28R 150 ft / 46 m 9,982 ft / 3,043 m 295.24° / 282.22° ASPHALT 0 ft / 0 m 200 ft / 61 m PREC-APP EDGE THRESHOLD

KLLJ

Details ICAO KLLJ
Name CHALLIS
Region United States
Timezone America/Boise (UTC-7.0)
Stats Elevation 5,072 ft / 1,546 m (AMSL)
Location 44.522900° -114.217000°
Runways 1
Magnetic Variation 12.550° E

METAR

KLLJ 302255Z AUTO 28010G15KT 10SM OVC070 04/M07 A3003 RMK AO2 SLP204 T00391072

Decode

TAF

Not found

Destination Runways

ID Width Length Bearing (true/mag) Surface Threshold Overrun Markings Lighting
16 60 ft / 18 m 4,564 ft / 1,391 m 181.82° / 169.27° ASPHALT 0 ft / 0 m 0 ft / 0 m APP EDGE THRESHOLD
34 60 ft / 18 m 4,564 ft / 1,391 m 1.82° / 349.27° ASPHALT 0 ft / 0 m 0 ft / 0 m APP EDGE THRESHOLD

Popular Alternatives